sensor_id;sensor_type;location;lat;lon;timestamp;temperature;humidity
13251;DHT22;6692;50.710;7.180;2023-11-19T00:01:28;11.30;99.90
13251;DHT22;6692;50.710;7.180;2023-11-19T00:03:28;11.30;99.90
13251;DHT22;6692;50.710;7.180;2023-11-19T00:05:29;11.30;99.90
13251;DHT22;6692;50.710;7.180;2023-11-19T00:07:30;11.30;99.90
13251;DHT22;6692;50.710;7.180;2023-11-19T00:09:31;11.30;99.90
13251;DHT22;6692;50.710;7.180;2023-11-19T00:11:32;11.30;99.90
13251;DHT22;6692;50.710;7.180;2023-11-19T00:13:33;11.30;99.90
13251;DHT22;6692;50.710;7.180;2023-11-19T00:15:35;11.30;99.90
13251;DHT22;6692;50.710;7.180;2023-11-19T00:17:35;11.30;99.90
13251;DHT22;6692;50.710;7.180;2023-11-19T00:19:37;11.30;99.90
13251;DHT22;6692;50.710;7.180;2023-11-19T00:21:38;11.30;99.90
13251;DHT22;6692;50.710;7.180;2023-11-19T00:23:39;11.20;99.90
13251;DHT22;6692;50.710;7.180;2023-11-19T00:25:40;11.20;99.90
13251;DHT22;6692;50.710;7.180;2023-11-19T00:27:41;11.30;99.90
13251;DHT22;6692;50.710;7.180;2023-11-19T00:29:42;11.20;99.90
13251;DHT22;6692;50.710;7.180;2023-11-19T00:31:42;11.20;99.90
13251;DHT22;6692;50.710;7.180;2023-11-19T00:33:43;11.20;99.90
13251;DHT22;6692;50.710;7.180;2023-11-19T00:35:45;11.20;99.90
13251;DHT22;6692;50.710;7.180;2023-11-19T00:37:46;11.20;99.90
13251;DHT22;6692;50.710;7.180;2023-11-19T00:39:47;11.30;99.90
13251;DHT22;6692;50.710;7.180;2023-11-19T00:41:49;11.30;99.90
13251;DHT22;6692;50.710;7.180;2023-11-19T00:43:49;11.20;99.90
13251;DHT22;6692;50.710;7.180;2023-11-19T00:45:50;11.20;99.90
13251;DHT22;6692;50.710;7.180;2023-11-19T00:47:51;11.20;99.90
13251;DHT22;6692;50.710;7.180;2023-11-19T00:49:52;11.20;99.90
13251;DHT22;6692;50.710;7.180;2023-11-19T00:51:53;11.20;99.90
13251;DHT22;6692;50.710;7.180;2023-11-19T00:53:54;11.20;99.90
13251;DHT22;6692;50.710;7.180;2023-11-19T00:55:55;11.20;99.90
13251;DHT22;6692;50.710;7.180;2023-11-19T00:57:56;11.30;99.90
13251;DHT22;6692;50.710;7.180;2023-11-19T00:59:56;11.30;99.90
13251;DHT22;6692;50.710;7.180;2023-11-19T01:01:58;11.40;99.90
13251;DHT22;6692;50.710;7.180;2023-11-19T01:03:59;11.30;99.90
13251;DHT22;6692;50.710;7.180;2023-11-19T01:06:00;11.30;99.90
13251;DHT22;6692;50.710;7.180;2023-11-19T01:08:00;11.40;99.90
13251;DHT22;6692;50.710;7.180;2023-11-19T01:10:01;11.30;99.90
13251;DHT22;6692;50.710;7.180;2023-11-19T01:12:02;11.30;99.90
13251;DHT22;6692;50.710;7.180;2023-11-19T01:14:03;11.30;99.90
13251;DHT22;6692;50.710;7.180;2023-11-19T01:16:05;11.40;99.90
13251;DHT22;6692;50.710;7.180;2023-11-19T01:18:06;11.40;99.90
13251;DHT22;6692;50.710;7.180;2023-11-19T01:20:07;11.30;99.90
13251;DHT22;6692;50.710;7.180;2023-11-19T01:22:08;11.40;99.90
13251;DHT22;6692;50.710;7.180;2023-11-19T01:24:09;11.30;99.90
13251;DHT22;6692;50.710;7.180;2023-11-19T01:26:10;11.40;99.90
13251;DHT22;6692;50.710;7.180;2023-11-19T01:28:11;11.40;99.90
13251;DHT22;6692;50.710;7.180;2023-11-19T01:30:12;11.40;99.90
13251;DHT22;6692;50.710;7.180;2023-11-19T01:32:15;11.40;99.90
13251;DHT22;6692;50.710;7.180;2023-11-19T01:34:15;11.40;99.90
13251;DHT22;6692;50.710;7.180;2023-11-19T01:36:16;11.40;99.90
13251;DHT22;6692;50.710;7.180;2023-11-19T01:38:18;11.50;99.90
13251;DHT22;6692;50.710;7.180;2023-11-19T01:40:20;11.40;99.90
13251;DHT22;6692;50.710;7.180;2023-11-19T01:42:21;11.50;99.90
13251;DHT22;6692;50.710;7.180;2023-11-19T01:44:22;11.50;99.90
13251;DHT22;6692;50.710;7.180;2023-11-19T01:46:23;11.50;99.90
13251;DHT22;6692;50.710;7.180;2023-11-19T01:48:23;11.50;99.90
13251;DHT22;6692;50.710;7.180;2023-11-19T01:50:24;11.50;99.90
13251;DHT22;6692;50.710;7.180;2023-11-19T01:52:25;11.50;99.90
13251;DHT22;6692;50.710;7.180;2023-11-19T01:54:26;11.60;99.90
13251;DHT22;6692;50.710;7.180;2023-11-19T01:56:27;11.50;99.90
13251;DHT22;6692;50.710;7.180;2023-11-19T01:58:29;11.60;99.90
13251;DHT22;6692;50.710;7.180;2023-11-19T02:00:30;11.60;99.90
13251;DHT22;6692;50.710;7.180;2023-11-19T02:02:30;11.60;99.90
13251;DHT22;6692;50.710;7.180;2023-11-19T02:04:31;11.60;99.90
13251;DHT22;6692;50.710;7.180;2023-11-19T02:06:32;11.60;99.90
13251;DHT22;6692;50.710;7.180;2023-11-19T02:08:33;11.60;99.90
13251;DHT22;6692;50.710;7.180;2023-11-19T02:10:34;11.60;99.90
13251;DHT22;6692;50.710;7.180;2023-11-19T02:12:34;11.60;99.90
13251;DHT22;6692;50.710;7.180;2023-11-19T02:14:35;11.60;99.90
13251;DHT22;6692;50.710;7.180;2023-11-19T02:16:36;11.70;99.90
13251;DHT22;6692;50.710;7.180;2023-11-19T02:18:37;11.70;99.90
13251;DHT22;6692;50.710;7.180;2023-11-19T02:20:38;11.70;99.90
13251;DHT22;6692;50.710;7.180;2023-11-19T02:22:39;11.70;99.90
13251;DHT22;6692;50.710;7.180;2023-11-19T02:24:39;11.70;99.90
13251;DHT22;6692;50.710;7.180;2023-11-19T02:26:52;11.70;99.90
13251;DHT22;6692;50.710;7.180;2023-11-19T02:28:52;11.70;99.90
13251;DHT22;6692;50.710;7.180;2023-11-19T02:30:53;11.70;99.90
13251;DHT22;6692;50.710;7.180;2023-11-19T02:32:55;11.70;99.90
13251;DHT22;6692;50.710;7.180;2023-11-19T02:34:58;11.60;99.90
13251;DHT22;6692;50.710;7.180;2023-11-19T02:36:59;11.60;99.90
13251;DHT22;6692;50.710;7.180;2023-11-19T02:38:59;11.60;99.90
13251;DHT22;6692;50.710;7.180;2023-11-19T02:41:02;11.60;99.90
13251;DHT22;6692;50.710;7.180;2023-11-19T02:43:01;11.60;99.90
13251;DHT22;6692;50.710;7.180;2023-11-19T02:45:02;11.60;99.90
13251;DHT22;6692;50.710;7.180;2023-11-19T02:47:05;11.50;99.90
13251;DHT22;6692;50.710;7.180;2023-11-19T02:49:04;11.50;99.90
13251;DHT22;6692;50.710;7.180;2023-11-19T02:51:06;11.50;99.90
13251;DHT22;6692;50.710;7.180;2023-11-19T02:53:09;11.60;99.90
13251;DHT22;6692;50.710;7.180;2023-11-19T02:55:11;11.60;99.90
13251;DHT22;6692;50.710;7.180;2023-11-19T02:57:12;11.60;99.90
13251;DHT22;6692;50.710;7.180;2023-11-19T02:59:13;11.60;99.90
13251;DHT22;6692;50.710;7.180;2023-11-19T03:01:14;11.70;99.90
13251;DHT22;6692;50.710;7.180;2023-11-19T03:03:15;11.70;99.90
13251;DHT22;6692;50.710;7.180;2023-11-19T03:05:18;11.70;99.90
13251;DHT22;6692;50.710;7.180;2023-11-19T03:07:20;11.70;99.90
13251;DHT22;6692;50.710;7.180;2023-11-19T03:09:21;11.70;99.90
13251;DHT22;6692;50.710;7.180;2023-11-19T03:11:22;11.70;99.90
13251;DHT22;6692;50.710;7.180;2023-11-19T03:13:23;11.70;99.90
13251;DHT22;6692;50.710;7.180;2023-11-19T03:15:24;11.70;99.90
13251;DHT22;6692;50.710;7.180;2023-11-19T03:17:25;11.70;99.90
13251;DHT22;6692;50.710;7.180;2023-11-19T03:19:25;11.70;99.90
13251;DHT22;6692;50.710;7.180;2023-11-19T03:21:28;11.80;99.90
13251;DHT22;6692;50.710;7.180;2023-11-19T03:23:28;11.80;99.90
13251;DHT22;6692;50.710;7.180;2023-11-19T03:25:29;11.80;99.90
13251;DHT22;6692;50.710;7.180;2023-11-19T03:27:31;11.90;99.90
13251;DHT22;6692;50.710;7.180;2023-11-19T03:29:32;11.90;99.90
13251;DHT22;6692;50.710;7.180;2023-11-19T03:31:33;11.90;99.90
13251;DHT22;6692;50.710;7.180;2023-11-19T03:33:34;11.90;99.90
13251;DHT22;6692;50.710;7.180;2023-11-19T03:35:34;11.80;99.90
13251;DHT22;6692;50.710;7.180;2023-11-19T03:37:35;11.80;99.90
13251;DHT22;6692;50.710;7.180;2023-11-19T03:39:36;11.70;99.90
13251;DHT22;6692;50.710;7.180;2023-11-19T03:41:37;11.70;99.90
13251;DHT22;6692;50.710;7.180;2023-11-19T03:43:38;11.60;99.90
13251;DHT22;6692;50.710;7.180;2023-11-19T03:45:38;11.60;99.90
13251;DHT22;6692;50.710;7.180;2023-11-19T03:47:39;11.60;99.90
13251;DHT22;6692;50.710;7.180;2023-11-19T03:49:40;11.60;99.90
13251;DHT22;6692;50.710;7.180;2023-11-19T03:51:41;11.60;99.90
13251;DHT22;6692;50.710;7.180;2023-11-19T03:53:43;11.60;99.90
13251;DHT22;6692;50.710;7.180;2023-11-19T03:55:43;11.60;99.90
13251;DHT22;6692;50.710;7.180;2023-11-19T03:57:44;11.70;99.90
13251;DHT22;6692;50.710;7.180;2023-11-19T03:59:45;11.80;99.90
13251;DHT22;6692;50.710;7.180;2023-11-19T04:01:46;11.80;99.90
13251;DHT22;6692;50.710;7.180;2023-11-19T04:03:47;11.80;99.90
13251;DHT22;6692;50.710;7.180;2023-11-19T04:05:48;11.80;99.90
13251;DHT22;6692;50.710;7.180;2023-11-19T04:07:50;11.90;99.90
13251;DHT22;6692;50.710;7.180;2023-11-19T04:09:51;11.90;99.90
13251;DHT22;6692;50.710;7.180;2023-11-19T04:11:52;11.90;99.90
13251;DHT22;6692;50.710;7.180;2023-11-19T04:13:53;12.00;99.90
13251;DHT22;6692;50.710;7.180;2023-11-19T04:15:54;12.10;99.90
13251;DHT22;6692;50.710;7.180;2023-11-19T04:17:54;12.20;99.90
13251;DHT22;6692;50.710;7.180;2023-11-19T04:19:55;12.20;99.90
13251;DHT22;6692;50.710;7.180;2023-11-19T04:21:56;12.20;99.90
13251;DHT22;6692;50.710;7.180;2023-11-19T04:23:57;12.20;99.90
13251;DHT22;6692;50.710;7.180;2023-11-19T04:25:58;12.30;99.90
13251;DHT22;6692;50.710;7.180;2023-11-19T04:27:58;12.30;99.90
13251;DHT22;6692;50.710;7.180;2023-11-19T04:29:59;12.30;99.90
13251;DHT22;6692;50.710;7.180;2023-11-19T04:32:00;12.30;99.90
13251;DHT22;6692;50.710;7.180;2023-11-19T04:34:01;12.30;99.90
13251;DHT22;6692;50.710;7.180;2023-11-19T04:36:02;12.30;99.90
13251;DHT22;6692;50.710;7.180;2023-11-19T04:38:02;12.30;99.90
13251;DHT22;6692;50.710;7.180;2023-11-19T04:40:04;12.40;99.90
13251;DHT22;6692;50.710;7.180;2023-11-19T04:42:06;12.30;99.90
13251;DHT22;6692;50.710;7.180;2023-11-19T04:44:06;12.30;99.90
13251;DHT22;6692;50.710;7.180;2023-11-19T04:46:09;12.20;99.90
13251;DHT22;6692;50.710;7.180;2023-11-19T04:48:08;12.20;99.90
13251;DHT22;6692;50.710;7.180;2023-11-19T04:50:10;12.10;99.90
13251;DHT22;6692;50.710;7.180;2023-11-19T04:52:10;12.10;99.90
13251;DHT22;6692;50.710;7.180;2023-11-19T04:54:11;12.00;99.90
13251;DHT22;6692;50.710;7.180;2023-11-19T04:56:12;12.00;99.90
13251;DHT22;6692;50.710;7.180;2023-11-19T04:58:13;12.00;99.90
13251;DHT22;6692;50.710;7.180;2023-11-19T05:00:14;11.90;99.90
13251;DHT22;6692;50.710;7.180;2023-11-19T05:02:15;12.00;99.90
13251;DHT22;6692;50.710;7.180;2023-11-19T05:04:15;12.00;99.90
13251;DHT22;6692;50.710;7.180;2023-11-19T05:06:16;12.00;99.90
13251;DHT22;6692;50.710;7.180;2023-11-19T05:08:17;12.10;99.90
13251;DHT22;6692;50.710;7.180;2023-11-19T05:10:18;12.10;99.90
13251;DHT22;6692;50.710;7.180;2023-11-19T05:12:19;12.10;99.90
13251;DHT22;6692;50.710;7.180;2023-11-19T05:14:20;12.10;99.90
13251;DHT22;6692;50.710;7.180;2023-11-19T05:16:22;12.00;99.90
13251;DHT22;6692;50.710;7.180;2023-11-19T05:18:24;12.00;99.90
13251;DHT22;6692;50.710;7.180;2023-11-19T05:20:25;12.00;99.90
13251;DHT22;6692;50.710;7.180;2023-11-19T05:22:26;12.00;99.90
13251;DHT22;6692;50.710;7.180;2023-11-19T05:24:27;12.00;99.90
13251;DHT22;6692;50.710;7.180;2023-11-19T05:26:28;11.90;99.90
13251;DHT22;6692;50.710;7.180;2023-11-19T05:28:28;11.80;99.90
13251;DHT22;6692;50.710;7.180;2023-11-19T05:30:30;11.70;99.90
13251;DHT22;6692;50.710;7.180;2023-11-19T05:32:31;11.60;99.90
13251;DHT22;6692;50.710;7.180;2023-11-19T05:34:32;11.60;99.90
13251;DHT22;6692;50.710;7.180;2023-11-19T05:36:33;11.60;99.90
13251;DHT22;6692;50.710;7.180;2023-11-19T05:38:35;11.50;99.90
13251;DHT22;6692;50.710;7.180;2023-11-19T05:40:35;11.50;99.90
13251;DHT22;6692;50.710;7.180;2023-11-19T05:42:37;11.50;99.90
13251;DHT22;6692;50.710;7.180;2023-11-19T05:44:36;11.50;99.90
13251;DHT22;6692;50.710;7.180;2023-11-19T05:46:37;11.50;99.90
13251;DHT22;6692;50.710;7.180;2023-11-19T05:48:38;11.50;99.90
13251;DHT22;6692;50.710;7.180;2023-11-19T05:50:39;11.60;99.90
13251;DHT22;6692;50.710;7.180;2023-11-19T05:52:40;11.60;99.90
13251;DHT22;6692;50.710;7.180;2023-11-19T05:54:41;11.60;99.90
13251;DHT22;6692;50.710;7.180;2023-11-19T05:56:42;11.60;99.90
13251;DHT22;6692;50.710;7.180;2023-11-19T05:58:43;11.70;99.90
13251;DHT22;6692;50.710;7.180;2023-11-19T06:00:43;11.70;99.90
13251;DHT22;6692;50.710;7.180;2023-11-19T06:02:44;11.80;99.90
13251;DHT22;6692;50.710;7.180;2023-11-19T06:04:45;11.80;99.90
13251;DHT22;6692;50.710;7.180;2023-11-19T06:06:46;11.90;99.90
13251;DHT22;6692;50.710;7.180;2023-11-19T06:08:46;12.00;99.90
13251;DHT22;6692;50.710;7.180;2023-11-19T06:10:47;12.00;99.90
13251;DHT22;6692;50.710;7.180;2023-11-19T06:12:48;12.10;99.90
13251;DHT22;6692;50.710;7.180;2023-11-19T06:14:49;12.10;99.90
13251;DHT22;6692;50.710;7.180;2023-11-19T06:16:50;12.10;99.90
13251;DHT22;6692;50.710;7.180;2023-11-19T06:18:51;12.20;99.90
13251;DHT22;6692;50.710;7.180;2023-11-19T06:20:52;12.20;99.90
13251;DHT22;6692;50.710;7.180;2023-11-19T06:22:53;12.20;99.90
13251;DHT22;6692;50.710;7.180;2023-11-19T06:24:53;12.20;99.90
13251;DHT22;6692;50.710;7.180;2023-11-19T06:26:54;12.30;99.90
13251;DHT22;6692;50.710;7.180;2023-11-19T06:28:55;12.30;99.90
13251;DHT22;6692;50.710;7.180;2023-11-19T06:30:56;12.30;99.90
13251;DHT22;6692;50.710;7.180;2023-11-19T06:32:57;12.30;99.90
13251;DHT22;6692;50.710;7.180;2023-11-19T06:34:57;12.30;99.90
13251;DHT22;6692;50.710;7.180;2023-11-19T06:36:58;12.30;99.90
13251;DHT22;6692;50.710;7.180;2023-11-19T06:38:59;12.30;99.90
13251;DHT22;6692;50.710;7.180;2023-11-19T06:41:00;12.30;99.90
13251;DHT22;6692;50.710;7.180;2023-11-19T06:43:01;12.20;99.90
13251;DHT22;6692;50.710;7.180;2023-11-19T06:45:02;12.10;99.90
13251;DHT22;6692;50.710;7.180;2023-11-19T06:47:02;12.10;99.90
13251;DHT22;6692;50.710;7.180;2023-11-19T06:49:03;11.90;99.90
13251;DHT22;6692;50.710;7.180;2023-11-19T06:51:05;11.80;99.90
13251;DHT22;6692;50.710;7.180;2023-11-19T06:53:06;11.70;99.90
13251;DHT22;6692;50.710;7.180;2023-11-19T06:55:08;11.70;99.90
13251;DHT22;6692;50.710;7.180;2023-11-19T06:57:09;11.70;99.90
13251;DHT22;6692;50.710;7.180;2023-11-19T06:59:09;11.80;99.90
13251;DHT22;6692;50.710;7.180;2023-11-19T07:01:10;11.80;99.90
13251;DHT22;6692;50.710;7.180;2023-11-19T07:03:12;11.80;99.90
13251;DHT22;6692;50.710;7.180;2023-11-19T07:05:13;11.80;99.90
13251;DHT22;6692;50.710;7.180;2023-11-19T07:07:14;11.80;99.90
13251;DHT22;6692;50.710;7.180;2023-11-19T07:09:16;11.80;99.90
13251;DHT22;6692;50.710;7.180;2023-11-19T07:11:16;11.80;99.90
13251;DHT22;6692;50.710;7.180;2023-11-19T07:13:17;11.80;99.90
13251;DHT22;6692;50.710;7.180;2023-11-19T07:15:18;11.70;99.90
13251;DHT22;6692;50.710;7.180;2023-11-19T07:17:19;11.70;99.90
13251;DHT22;6692;50.710;7.180;2023-11-19T07:19:20;11.70;99.90
13251;DHT22;6692;50.710;7.180;2023-11-19T07:21:22;11.70;99.90
13251;DHT22;6692;50.710;7.180;2023-11-19T07:23:23;11.70;99.90
13251;DHT22;6692;50.710;7.180;2023-11-19T07:25:23;11.70;99.90
13251;DHT22;6692;50.710;7.180;2023-11-19T07:27:24;11.70;99.90
13251;DHT22;6692;50.710;7.180;2023-11-19T07:29:25;11.70;99.90
13251;DHT22;6692;50.710;7.180;2023-11-19T07:31:26;11.70;99.90
13251;DHT22;6692;50.710;7.180;2023-11-19T07:33:27;11.80;99.90
13251;DHT22;6692;50.710;7.180;2023-11-19T07:35:27;11.80;99.90
13251;DHT22;6692;50.710;7.180;2023-11-19T07:37:28;11.80;99.90
13251;DHT22;6692;50.710;7.180;2023-11-19T07:39:29;11.80;99.90
13251;DHT22;6692;50.710;7.180;2023-11-19T07:41:30;11.90;99.90
13251;DHT22;6692;50.710;7.180;2023-11-19T07:43:32;12.00;99.90
13251;DHT22;6692;50.710;7.180;2023-11-19T07:45:33;12.00;99.90
13251;DHT22;6692;50.710;7.180;2023-11-19T07:47:34;12.10;99.90
13251;DHT22;6692;50.710;7.180;2023-11-19T07:49:35;12.20;99.90
13251;DHT22;6692;50.710;7.180;2023-11-19T07:51:35;12.20;99.90
13251;DHT22;6692;50.710;7.180;2023-11-19T07:53:36;12.30;99.90
13251;DHT22;6692;50.710;7.180;2023-11-19T07:55:37;12.30;99.90
13251;DHT22;6692;50.710;7.180;2023-11-19T07:57:38;12.30;99.90
13251;DHT22;6692;50.710;7.180;2023-11-19T07:59:39;12.40;99.90
13251;DHT22;6692;50.710;7.180;2023-11-19T08:01:39;12.50;99.90
13251;DHT22;6692;50.710;7.180;2023-11-19T08:03:40;12.50;99.90
13251;DHT22;6692;50.710;7.180;2023-11-19T08:05:41;12.50;99.90
13251;DHT22;6692;50.710;7.180;2023-11-19T08:07:42;12.50;99.90
13251;DHT22;6692;50.710;7.180;2023-11-19T08:09:43;12.60;99.90
13251;DHT22;6692;50.710;7.180;2023-11-19T08:11:43;12.60;99.90
13251;DHT22;6692;50.710;7.180;2023-11-19T08:13:45;12.70;99.90
13251;DHT22;6692;50.710;7.180;2023-11-19T08:15:46;12.70;99.90
13251;DHT22;6692;50.710;7.180;2023-11-19T08:17:47;12.80;99.90
13251;DHT22;6692;50.710;7.180;2023-11-19T08:19:47;12.80;99.90
13251;DHT22;6692;50.710;7.180;2023-11-19T08:21:48;12.90;99.90
13251;DHT22;6692;50.710;7.180;2023-11-19T08:23:49;12.90;99.90
13251;DHT22;6692;50.710;7.180;2023-11-19T08:25:50;12.90;99.90
13251;DHT22;6692;50.710;7.180;2023-11-19T08:27:51;12.90;99.90
13251;DHT22;6692;50.710;7.180;2023-11-19T08:29:53;12.90;99.90
13251;DHT22;6692;50.710;7.180;2023-11-19T08:31:54;12.90;99.90
13251;DHT22;6692;50.710;7.180;2023-11-19T08:33:55;12.90;99.90
13251;DHT22;6692;50.710;7.180;2023-11-19T08:35:55;12.90;99.90
13251;DHT22;6692;50.710;7.180;2023-11-19T08:37:56;12.80;99.90
13251;DHT22;6692;50.710;7.180;2023-11-19T08:39:57;12.80;99.90
13251;DHT22;6692;50.710;7.180;2023-11-19T08:41:58;12.80;99.90
13251;DHT22;6692;50.710;7.180;2023-11-19T08:43:59;12.90;99.90
13251;DHT22;6692;50.710;7.180;2023-11-19T08:46:01;13.00;99.90
13251;DHT22;6692;50.710;7.180;2023-11-19T08:48:03;13.00;99.90
13251;DHT22;6692;50.710;7.180;2023-11-19T08:50:06;13.00;99.90
13251;DHT22;6692;50.710;7.180;2023-11-19T08:52:07;13.00;99.90
13251;DHT22;6692;50.710;7.180;2023-11-19T08:54:12;13.10;99.90
13251;DHT22;6692;50.710;7.180;2023-11-19T08:56:24;13.10;99.90
13251;DHT22;6692;50.710;7.180;2023-11-19T08:58:33;13.10;99.90
13251;DHT22;6692;50.710;7.180;2023-11-19T09:00:35;13.10;99.90
13251;DHT22;6692;50.710;7.180;2023-11-19T09:02:37;13.20;99.90
13251;DHT22;6692;50.710;7.180;2023-11-19T09:04:40;13.20;99.90
13251;DHT22;6692;50.710;7.180;2023-11-19T09:06:41;13.20;99.90
13251;DHT22;6692;50.710;7.180;2023-11-19T09:08:43;13.20;99.90
13251;DHT22;6692;50.710;7.180;2023-11-19T09:10:44;13.20;99.90
13251;DHT22;6692;50.710;7.180;2023-11-19T09:12:53;13.20;99.90
13251;DHT22;6692;50.710;7.180;2023-11-19T09:14:54;13.10;99.90
13251;DHT22;6692;50.710;7.180;2023-11-19T09:16:55;13.10;99.90
13251;DHT22;6692;50.710;7.180;2023-11-19T09:18:55;13.10;99.90
13251;DHT22;6692;50.710;7.180;2023-11-19T09:20:57;13.10;99.90
13251;DHT22;6692;50.710;7.180;2023-11-19T09:22:58;13.10;99.90
13251;DHT22;6692;50.710;7.180;2023-11-19T09:24:59;13.10;99.90
13251;DHT22;6692;50.710;7.180;2023-11-19T09:27:01;13.30;99.90
13251;DHT22;6692;50.710;7.180;2023-11-19T09:29:02;13.20;99.90
13251;DHT22;6692;50.710;7.180;2023-11-19T09:31:02;13.30;99.90
13251;DHT22;6692;50.710;7.180;2023-11-19T09:33:04;13.40;99.90
13251;DHT22;6692;50.710;7.180;2023-11-19T09:35:05;13.50;99.90
13251;DHT22;6692;50.710;7.180;2023-11-19T09:37:06;13.50;99.90
13251;DHT22;6692;50.710;7.180;2023-11-19T09:39:07;13.60;99.90
13251;DHT22;6692;50.710;7.180;2023-11-19T09:41:09;13.70;99.90
13251;DHT22;6692;50.710;7.180;2023-11-19T09:43:09;13.60;99.90
13251;DHT22;6692;50.710;7.180;2023-11-19T09:45:12;13.60;99.90
13251;DHT22;6692;50.710;7.180;2023-11-19T09:47:11;13.60;99.90
13251;DHT22;6692;50.710;7.180;2023-11-19T09:49:11;13.60;99.90
13251;DHT22;6692;50.710;7.180;2023-11-19T09:51:12;13.60;99.90
13251;DHT22;6692;50.710;7.180;2023-11-19T09:53:13;13.60;99.90
13251;DHT22;6692;50.710;7.180;2023-11-19T09:55:14;13.60;99.90
13251;DHT22;6692;50.710;7.180;2023-11-19T09:57:16;13.70;99.90
13251;DHT22;6692;50.710;7.180;2023-11-19T10:01:31;13.70;99.90
13251;DHT22;6692;50.710;7.180;2023-11-19T10:03:33;13.70;99.90
13251;DHT22;6692;50.710;7.180;2023-11-19T10:05:33;13.70;99.90
13251;DHT22;6692;50.710;7.180;2023-11-19T10:07:34;13.80;99.90
13251;DHT22;6692;50.710;7.180;2023-11-19T10:09:36;13.80;99.90
13251;DHT22;6692;50.710;7.180;2023-11-19T10:11:36;13.80;99.90
13251;DHT22;6692;50.710;7.180;2023-11-19T10:13:37;13.90;99.90
13251;DHT22;6692;50.710;7.180;2023-11-19T10:15:38;13.90;99.90
13251;DHT22;6692;50.710;7.180;2023-11-19T10:17:39;14.00;99.90
13251;DHT22;6692;50.710;7.180;2023-11-19T10:19:40;14.00;99.90
13251;DHT22;6692;50.710;7.180;2023-11-19T10:21:40;14.10;99.90
13251;DHT22;6692;50.710;7.180;2023-11-19T10:23:48;14.20;99.90
13251;DHT22;6692;50.710;7.180;2023-11-19T10:25:48;14.30;99.90
13251;DHT22;6692;50.710;7.180;2023-11-19T10:27:50;14.30;99.90
13251;DHT22;6692;50.710;7.180;2023-11-19T10:29:50;14.40;99.90
13251;DHT22;6692;50.710;7.180;2023-11-19T10:31:55;14.40;99.90
13251;DHT22;6692;50.710;7.180;2023-11-19T10:33:56;14.50;99.90
13251;DHT22;6692;50.710;7.180;2023-11-19T10:35:57;14.50;99.90
13251;DHT22;6692;50.710;7.180;2023-11-19T10:37:59;14.60;99.90
13251;DHT22;6692;50.710;7.180;2023-11-19T10:39:58;14.60;99.90
13251;DHT22;6692;50.710;7.180;2023-11-19T10:42:05;14.70;99.90
13251;DHT22;6692;50.710;7.180;2023-11-19T10:43:59;14.60;99.90
13251;DHT22;6692;50.710;7.180;2023-11-19T10:46:11;14.50;99.90
13251;DHT22;6692;50.710;7.180;2023-11-19T10:48:11;14.40;99.90
13251;DHT22;6692;50.710;7.180;2023-11-19T10:50:13;14.40;99.90
13251;DHT22;6692;50.710;7.180;2023-11-19T10:52:18;14.40;99.90
13251;DHT22;6692;50.710;7.180;2023-11-19T10:54:15;14.40;99.90
13251;DHT22;6692;50.710;7.180;2023-11-19T10:56:15;14.50;99.90
13251;DHT22;6692;50.710;7.180;2023-11-19T10:58:16;14.60;99.90
13251;DHT22;6692;50.710;7.180;2023-11-19T11:00:18;14.60;99.90
13251;DHT22;6692;50.710;7.180;2023-11-19T11:02:21;14.60;99.90
13251;DHT22;6692;50.710;7.180;2023-11-19T11:04:22;14.60;99.90
13251;DHT22;6692;50.710;7.180;2023-11-19T11:06:21;14.60;99.90
13251;DHT22;6692;50.710;7.180;2023-11-19T11:08:23;14.60;99.90
13251;DHT22;6692;50.710;7.180;2023-11-19T11:10:25;14.60;99.90
13251;DHT22;6692;50.710;7.180;2023-11-19T11:12:24;14.60;99.90
13251;DHT22;6692;50.710;7.180;2023-11-19T11:14:26;14.80;99.90
13251;DHT22;6692;50.710;7.180;2023-11-19T11:16:27;14.80;99.90
13251;DHT22;6692;50.710;7.180;2023-11-19T11:18:27;14.80;99.90
13251;DHT22;6692;50.710;7.180;2023-11-19T11:20:30;14.90;99.90
13251;DHT22;6692;50.710;7.180;2023-11-19T11:22:32;14.90;99.90
13251;DHT22;6692;50.710;7.180;2023-11-19T11:25:05;14.90;99.90
13251;DHT22;6692;50.710;7.180;2023-11-19T11:27:59;14.90;99.90
13251;DHT22;6692;50.710;7.180;2023-11-19T11:29:41;14.90;99.90
13251;DHT22;6692;50.710;7.180;2023-11-19T11:36:16;14.80;99.90
13251;DHT22;6692;50.710;7.180;2023-11-19T11:38:14;14.80;99.90
13251;DHT22;6692;50.710;7.180;2023-11-19T11:40:15;14.80;99.90
13251;DHT22;6692;50.710;7.180;2023-11-19T11:42:32;14.70;99.90
13251;DHT22;6692;50.710;7.180;2023-11-19T11:46:53;14.60;99.90
13251;DHT22;6692;50.710;7.180;2023-11-19T11:48:54;14.60;99.90
13251;DHT22;6692;50.710;7.180;2023-11-19T11:50:56;14.50;99.90
13251;DHT22;6692;50.710;7.180;2023-11-19T11:53:13;14.40;99.90
13251;DHT22;6692;50.710;7.180;2023-11-19T11:55:13;14.30;99.90
13251;DHT22;6692;50.710;7.180;2023-11-19T11:57:14;14.10;99.90
13251;DHT22;6692;50.710;7.180;2023-11-19T11:59:18;13.80;99.90
13251;DHT22;6692;50.710;7.180;2023-11-19T12:01:19;13.60;99.90
13251;DHT22;6692;50.710;7.180;2023-11-19T12:03:20;13.20;99.90
13251;DHT22;6692;50.710;7.180;2023-11-19T12:05:21;12.80;99.90
13251;DHT22;6692;50.710;7.180;2023-11-19T12:07:22;12.70;99.90
13251;DHT22;6692;50.710;7.180;2023-11-19T12:09:23;12.60;99.90
13251;DHT22;6692;50.710;7.180;2023-11-19T12:11:24;12.40;99.90
13251;DHT22;6692;50.710;7.180;2023-11-19T12:13:29;12.40;99.90
13251;DHT22;6692;50.710;7.180;2023-11-19T12:15:26;12.40;99.90
13251;DHT22;6692;50.710;7.180;2023-11-19T12:17:49;12.40;99.90
13251;DHT22;6692;50.710;7.180;2023-11-19T12:19:50;12.40;99.90
13251;DHT22;6692;50.710;7.180;2023-11-19T12:21:51;12.40;99.90
13251;DHT22;6692;50.710;7.180;2023-11-19T12:23:52;12.40;99.90
13251;DHT22;6692;50.710;7.180;2023-11-19T12:25:53;12.50;99.90
13251;DHT22;6692;50.710;7.180;2023-11-19T12:27:54;12.50;99.90
13251;DHT22;6692;50.710;7.180;2023-11-19T12:29:55;12.50;99.90
13251;DHT22;6692;50.710;7.180;2023-11-19T12:31:55;12.60;99.90
13251;DHT22;6692;50.710;7.180;2023-11-19T12:33:56;12.60;99.90
13251;DHT22;6692;50.710;7.180;2023-11-19T12:35:57;12.60;99.90
13251;DHT22;6692;50.710;7.180;2023-11-19T12:37:58;12.60;99.90
13251;DHT22;6692;50.710;7.180;2023-11-19T12:39:59;12.50;99.90
13251;DHT22;6692;50.710;7.180;2023-11-19T12:42:00;12.50;99.90
13251;DHT22;6692;50.710;7.180;2023-11-19T12:44:08;12.50;99.90
13251;DHT22;6692;50.710;7.180;2023-11-19T12:46:17;12.40;99.90
13251;DHT22;6692;50.710;7.180;2023-11-19T12:48:17;12.40;99.90
13251;DHT22;6692;50.710;7.180;2023-11-19T12:50:18;12.40;99.90
13251;DHT22;6692;50.710;7.180;2023-11-19T12:52:19;12.50;99.90
13251;DHT22;6692;50.710;7.180;2023-11-19T12:54:20;12.60;99.90
13251;DHT22;6692;50.710;7.180;2023-11-19T12:56:21;12.50;99.90
13251;DHT22;6692;50.710;7.180;2023-11-19T12:58:29;12.50;99.90
13251;DHT22;6692;50.710;7.180;2023-11-19T13:00:29;12.40;99.90
13251;DHT22;6692;50.710;7.180;2023-11-19T13:04:43;12.30;99.90
13251;DHT22;6692;50.710;7.180;2023-11-19T13:06:45;12.20;99.90
13251;DHT22;6692;50.710;7.180;2023-11-19T13:08:47;12.20;99.90
13251;DHT22;6692;50.710;7.180;2023-11-19T13:10:51;12.20;99.90